Список аэропортов
Фактическая погода:

18 октября, 10:30
Температура: +12°C (+12.0*)
Ветер: перем. 1 м/с
Давление: *764 мм
несуществ. обл.
Время (МСК)Темп. СВетерВлажностьДавлениеОблачностьОсадки
09:00+6ЮВ, 1 м/с99%1020 гПас прояснениями
10:00+7Ю, 1 м/с96%1019 гПамалооблачно
11:00+10Ю, 2 м/с91%1019 гПас прояснениями
12:00+12Ю, 2 м/с84%1019 гПас прояснениями
13:00+14Ю, 2 м/с75%1019 гПас прояснениями
14:00+16ЮЗ, 1 м/с68%1019 гПамалооблачно
15:00+17З, 1 м/с67%1018 гПамалооблачно
16:00+17З, 2 м/с70%1018 гПаоблачно
17:00+16СЗ, 2 м/с75%1019 гПаоблачно
18:00+15З, 2 м/с80%1019 гПас прояснениями
19:00+14З, 1 м/с89%1019 гПаоблачно
20:00+12З, 2 м/с97%1019 гПас прояснениями
21:00+12З, 2 м/с99%1019 гПаоблачно
22:00+12СЗ, 3 м/с97%1020 гПаоблачно
23:00+13СЗ, 4 м/с96%1020 гПаоблачно
19 октября
00:00+13С, 4 м/с91%1020 гПаоблачно
01:00+13С, 5 м/с86%1021 гПаоблачно
02:00+13С, 5 м/с82%1021 гПаоблачно
03:00+13С, 5 м/с81%1021 гПаоблачно
04:00+12С, 4 м/с83%1022 гПамалооблачно
05:00+11С, 4 м/с85%1022 гПас прояснениями
06:00+11С, 4 м/с82%1022 гПас прояснениями
07:00+10С, 3 м/с84%1023 гПас прояснениями
08:00+9С, 3 м/с88%1023 гПаоблачно
09:00+9С, 2 м/с85%1023 гПаоблачно
10:00+10С, 2 м/с80%1024 гПас прояснениями
11:00+11С, 3 м/с72%1024 гПаоблачно
12:00+12С, 3 м/с68%1024 гПаоблачно
13:00+12С, 3 м/с60%1025 гПаоблачно
14:00+12С, 3 м/с58%1025 гПаясно
15:00+12С, 3 м/с60%1025 гПаоблачно
16:00+12С, 3 м/с62%1025 гПаоблачно
17:00+11СЗ, 3 м/с64%1025 гПаоблачно
18:00+10С, 2 м/с66%1025 гПаоблачно
19:00+9С, 2 м/с77%1025 гПаоблачно
20:00+7С, 1 м/с87%1025 гПас прояснениями
21:00+6СЗ, 1 м/с90%1025 гПаоблачно
22:00+5З, 1 м/с92%1025 гПаоблачно
23:00+4ЮЗ, 1 м/с93%1025 гПаоблачно
20 октября
00:00+4ЮЗ, 2 м/с92%1025 гПаоблачно
01:00+4ЮЗ, 2 м/с94%1026 гПаоблачно
02:00+4ЮЗ, 2 м/с95%1026 гПаоблачно
03:00+4ЮЗ, 2 м/с95%1025 гПамалооблачно
04:00+4ЮЗ, 2 м/с96%1025 гПас прояснениями
05:00+4ЮЗ, 2 м/с96%1025 гПас прояснениями
06:00+4ЮЗ, 2 м/с95%1025 гПас прояснениями
07:00+4Ю, 2 м/с93%1025 гПаоблачно
08:00+4Ю, 2 м/с94%1025 гПаоблачно
09:00+5Ю, 2 м/с95%1025 гПаоблачно